Time;durP1;ratioP1;P1;durP2;ratioP2;P2;SDS_P1;SDS_P2;PMS_P1;PMS_P2;Temp;Humidity;BMP_temperature;BMP_pressure;BME280_temperature;BME280_humidity;BME280_pressure;Samples;Min_cycle;Max_cycle;Signal;HPM_P1;HPM_P2
2022/04/20 00:01:42;;;;;;;4.70;4.30;;;;;;;1.25;100.00;96867.34;4951679;28;20344;-59
2022/04/20 00:04:12;;;;;;;4.67;4.37;;;;;;;1.38;100.00;96859.28;4946213;28;20234;-57
2022/04/20 00:06:41;;;;;;;7.63;5.73;;;;;;;1.32;100.00;96857.16;4951804;28;20242;-58
2022/04/20 00:09:09;;;;;;;7.30;6.27;;;;;;;1.27;100.00;96857.59;4933389;28;20293;-59
2022/04/20 00:11:37;;;;;;;6.27;5.77;;;;;;;1.21;100.00;96860.72;4948732;28;20236;-54
2022/04/20 00:14:05;;;;;;;5.43;4.93;;;;;;;1.13;100.00;96863.16;4911522;28;20250;-57
2022/04/20 00:16:33;;;;;;;5.00;4.60;;;;;;;1.07;100.00;96866.31;4948291;28;20294;-58
2022/04/20 00:19:01;;;;;;;5.57;5.07;;;;;;;1.00;100.00;96866.84;4946926;28;20372;-58
2022/04/20 00:21:31;;;;;;;5.37;4.97;;;;;;;1.00;100.00;96864.22;4949807;28;20234;-59
2022/04/20 00:23:59;;;;;;;4.73;4.33;;;;;;;0.91;100.00;96869.41;4934354;28;20238;-56
2022/04/20 00:26:27;;;;;;;5.30;4.90;;;;;;;0.85;100.00;96871.56;4951376;28;20353;-55
2022/04/20 00:28:55;;;;;;;4.87;4.47;;;;;;;0.75;100.00;96872.47;4916540;28;20233;-59
2022/04/20 00:31:23;;;;;;;5.17;4.70;;;;;;;0.68;100.00;96861.75;4941013;28;20690;-58
2022/04/20 00:33:51;;;;;;;4.77;4.47;;;;;;;0.63;100.00;96875.19;4947074;28;20590;-57
2022/04/20 00:36:19;;;;;;;4.73;4.40;;;;;;;0.61;100.00;96873.66;4952726;28;20290;-60
2022/04/20 00:38:49;;;;;;;4.60;4.20;;;;;;;0.61;100.00;96871.06;4951331;28;20297;-58
2022/04/20 00:41:17;;;;;;;4.90;3.97;;;;;;;0.59;100.00;96865.16;4939957;28;20495;-58
2022/04/20 00:43:45;;;;;;;4.23;3.93;;;;;;;0.55;100.00;96868.00;4919875;28;20214;-60
2022/04/20 00:46:13;;;;;;;4.47;4.00;;;;;;;0.54;100.00;96874.16;4938787;28;20303;-55
2022/04/20 00:48:41;;;;;;;4.00;3.80;;;;;;;0.56;100.00;96869.63;4946970;28;20682;-58
2022/04/20 00:51:09;;;;;;;3.83;3.63;;;;;;;0.59;100.00;96860.75;4943003;28;20314;-57
2022/04/20 00:53:37;;;;;;;4.27;4.00;;;;;;;0.60;100.00;96869.41;4943020;28;21141;-57
2022/04/20 00:56:07;;;;;;;3.90;3.63;;;;;;;0.52;100.00;96876.06;4927474;28;20575;-59
2022/04/20 00:58:35;;;;;;;3.83;3.53;;;;;;;0.52;100.00;96865.63;4915693;28;20353;-58
2022/04/20 01:01:03;;;;;;;5.17;4.67;;;;;;;0.50;100.00;96862.34;4936885;28;20233;-58
2022/04/20 01:03:32;;;;;;;4.40;4.10;;;;;;;0.59;100.00;96862.53;4945690;28;20202;-58
2022/04/20 01:06:00;;;;;;;4.33;4.03;;;;;;;0.55;100.00;96867.19;4944805;28;20435;-57
2022/04/20 01:08:29;;;;;;;4.57;4.27;;;;;;;0.52;100.00;96864.84;4951222;28;20206;-60
2022/04/20 01:10:57;;;;;;;4.77;4.37;;;;;;;0.51;100.00;96853.56;4931037;28;20245;-59
2022/04/20 01:13:27;;;;;;;4.17;3.87;;;;;;;0.59;100.00;96871.19;4917291;28;20218;-56
2022/04/20 01:15:55;;;;;;;3.83;3.63;;;;;;;0.43;100.00;96872.47;4946590;28;20206;-56
2022/04/20 01:18:23;;;;;;;5.00;4.70;;;;;;;0.40;100.00;96877.09;4939440;28;20214;-56
2022/04/20 01:20:52;;;;;;;3.77;3.57;;;;;;;0.38;100.00;96858.16;4950147;28;20707;-59
2022/04/20 01:23:20;;;;;;;4.30;4.00;;;;;;;0.34;100.00;96865.41;4949189;28;20729;-60
2022/04/20 01:25:48;;;;;;;3.77;3.57;;;;;;;0.29;100.00;96870.16;4948243;28;20297;-59
2022/04/20 01:28:17;;;;;;;4.27;3.97;;;;;;;0.30;100.00;96869.22;4931602;28;20317;-57
2022/04/20 01:30:45;;;;;;;4.40;4.07;;;;;;;0.26;100.00;96870.41;4910264;28;20326;-58
2022/04/20 01:33:13;;;;;;;3.97;3.77;;;;;;;0.17;100.00;96869.41;4937010;28;20234;-57
2022/04/20 01:35:41;;;;;;;4.43;4.03;;;;;;;0.11;100.00;96872.50;4948796;28;20310;-58
2022/04/20 01:38:10;;;;;;;4.80;4.40;;;;;;;0.06;100.00;96870.28;4945529;28;20207;-60
2022/04/20 01:40:38;;;;;;;4.63;4.30;;;;;;;0.01;100.00;96867.25;4950924;28;20632;-61
2022/04/20 01:43:06;;;;;;;4.73;3.67;;;;;;;0.03;100.00;96874.91;4923549;28;20220;-60
2022/04/20 01:45:34;;;;;;;4.13;3.93;;;;;;;-0.04;100.00;96871.97;4914959;28;20232;-57
2022/04/20 01:48:02;;;;;;;3.90;3.70;;;;;;;-0.03;100.00;96869.25;4928991;28;20210;-61
2022/04/20 01:50:30;;;;;;;4.30;4.00;;;;;;;-0.09;100.00;96869.78;4942072;28;20452;-57
2022/04/20 01:52:58;;;;;;;4.40;4.10;;;;;;;-0.15;100.00;96865.06;4940938;28;20215;-59
2022/04/20 01:55:28;;;;;;;5.80;3.87;;;;;;;-0.19;100.00;96871.44;4945580;28;20301;-58
2022/04/20 01:57:56;;;;;;;4.47;4.17;;;;;;;-0.22;100.00;96866.47;4943568;28;20217;-59
2022/04/20 02:00:24;;;;;;;4.17;3.90;;;;;;;-0.24;100.00;96866.63;4895438;28;20241;-58
2022/04/20 02:02:51;;;;;;;4.27;3.97;;;;;;;-0.30;100.00;96872.34;4943677;28;20234;-61
2022/04/20 02:05:19;;;;;;;4.60;4.20;;;;;;;-0.33;100.00;96875.19;4935494;28;20899;-58
2022/04/20 02:07:47;;;;;;;6.87;4.20;;;;;;;-0.40;100.00;96877.44;4944324;28;20808;-59
2022/04/20 02:10:15;;;;;;;4.17;3.87;;;;;;;-0.42;100.00;96874.13;4945714;28;20471;-59
2022/04/20 02:12:45;;;;;;;5.13;4.73;;;;;;;-0.45;100.00;96877.78;4944672;28;20582;-59
2022/04/20 02:15:13;;;;;;;4.33;4.03;;;;;;;-0.52;100.00;96874.03;4909305;28;21434;-56
2022/04/20 02:17:41;;;;;;;4.70;4.40;;;;;;;-0.55;100.00;96871.69;4943141;28;20635;-59
2022/04/20 02:20:10;;;;;;;4.57;4.27;;;;;;;-0.55;100.00;96870.88;4914581;28;20476;-58
2022/04/20 02:22:38;;;;;;;5.30;4.50;;;;;;;-0.57;100.00;96867.53;4946866;28;20273;-59
2022/04/20 02:25:07;;;;;;;4.50;4.20;;;;;;;-0.64;100.00;96859.41;4949832;28;20694;-57
2022/04/20 02:27:35;;;;;;;4.30;4.00;;;;;;;-0.62;100.00;96863.53;4945303;28;20534;-57
2022/04/20 02:30:05;;;;;;;4.67;4.27;;;;;;;-0.67;100.00;96860.47;4942967;28;20281;-59
2022/04/20 02:32:34;;;;;;;4.00;3.80;;;;;;;-0.67;100.00;96868.25;4890158;28;20329;-60
2022/04/20 02:35:02;;;;;;;4.50;4.20;;;;;;;-0.71;100.00;96866.84;4933286;28;20933;-58
2022/04/20 02:37:30;;;;;;;4.50;4.20;;;;;;;-0.77;100.00;96859.53;4942963;28;20310;-61
2022/04/20 02:39:58;;;;;;;5.07;4.77;;;;;;;-0.81;100.00;96866.75;4948518;28;20261;-59
2022/04/20 02:42:26;;;;;;;6.03;4.53;;;;;;;-0.80;100.00;96867.59;4941035;28;20658;-55
2022/04/20 02:44:54;;;;;;;4.77;4.33;;;;;;;-0.86;100.00;96868.06;4949573;28;20310;-61
2022/04/20 02:47:24;;;;;;;4.90;4.60;;;;;;;-0.90;100.00;96864.88;4903635;28;20634;-59
2022/04/20 02:49:52;;;;;;;5.17;4.77;;;;;;;-0.96;100.00;96857.56;4947397;28;20749;-58
2022/04/20 02:52:22;;;;;;;5.37;4.97;;;;;;;-1.00;100.00;96862.16;4930824;28;20290;-58
2022/04/20 02:54:50;;;;;;;5.07;4.70;;;;;;;-1.05;100.00;96862.53;4948420;28;20210;-58
2022/04/20 02:57:18;;;;;;;5.17;4.83;;;;;;;-0.95;100.00;96859.22;4945629;28;20241;-59
2022/04/20 02:59:47;;;;;;;4.70;4.43;;;;;;;-0.97;100.00;96861.91;4945830;28;20995;-58
2022/04/20 03:02:15;;;;;;;4.70;4.40;;;;;;;-1.03;100.00;96872.78;4914219;28;20322;-60
2022/04/20 03:04:45;;;;;;;5.50;5.20;;;;;;;-1.10;100.00;96863.81;4947211;28;20229;-58
2022/04/20 03:07:13;;;;;;;5.50;5.00;;;;;;;-1.11;100.00;96867.38;4931255;28;20305;-61
2022/04/20 03:09:41;;;;;;;5.47;4.97;;;;;;;-1.19;100.00;96863.59;4947397;28;20210;-60
2022/04/20 03:12:10;;;;;;;5.53;5.03;;;;;;;-1.21;100.00;96865.47;4943338;28;20714;-62
2022/04/20 03:14:38;;;;;;;5.37;4.87;;;;;;;-1.25;100.00;96871.88;4948821;28;20213;-57
2022/04/20 03:17:07;;;;;;;5.37;4.93;;;;;;;-1.28;100.00;96872.09;4924648;28;20287;-62
2022/04/20 03:19:35;;;;;;;5.80;5.40;;;;;;;-1.33;100.00;96869.00;4932388;28;20445;-59
2022/04/20 03:22:05;;;;;;;5.30;4.90;;;;;;;-1.34;100.00;96868.19;4932802;28;20224;-59
2022/04/20 03:24:33;;;;;;;5.30;4.90;;;;;;;-1.41;100.00;96872.22;4941955;28;20280;-56
2022/04/20 03:27:02;;;;;;;5.50;5.10;;;;;;;-1.46;100.00;96867.34;4949214;28;21863;-57
2022/04/20 03:29:32;;;;;;;5.77;5.27;;;;;;;-1.49;100.00;96864.97;4940663;28;20390;-59
2022/04/20 03:32:00;;;;;;;5.07;4.77;;;;;;;-1.52;100.00;96867.81;4943961;28;20298;-60
2022/04/20 03:34:29;;;;;;;6.27;5.17;;;;;;;-1.56;100.00;96863.81;4905607;28;20246;-56
2022/04/20 03:36:57;;;;;;;7.00;5.37;;;;;;;-1.53;100.00;96865.31;4943590;28;20293;-59
2022/04/20 03:39:27;;;;;;;5.27;4.87;;;;;;;-1.58;100.00;96867.44;4928708;28;20338;-57
2022/04/20 03:41:55;;;;;;;5.40;5.00;;;;;;;-1.63;100.00;96860.81;4945404;28;20223;-57
2022/04/20 03:44:23;;;;;;;5.27;4.90;;;;;;;-1.63;100.00;96865.22;4944482;28;20797;-57
2022/04/20 03:46:52;;;;;;;5.00;4.60;;;;;;;-1.62;100.00;96865.06;4948699;28;21052;-58
2022/04/20 03:49:20;;;;;;;6.50;6.00;;;;;;;-1.57;100.00;96869.09;4904293;28;20460;-60
2022/04/20 03:51:48;;;;;;;5.20;4.90;;;;;;;-1.55;100.00;96864.59;4940871;28;20246;-58
2022/04/20 03:54:16;;;;;;;5.50;5.10;;;;;;;-1.60;100.00;96862.38;4930913;28;20215;-58
2022/04/20 03:57:04;;;;;;;5.77;5.37;;;;;;;-1.65;100.00;96874.88;4945906;28;20640;-57
2022/04/20 03:59:32;;;;;;;5.53;5.20;;;;;;;-1.59;100.00;96882.22;4944826;28;20666;-57
2022/04/20 04:02:01;;;;;;;5.70;5.27;;;;;;;-1.69;100.00;96879.47;4947623;28;20322;-56
2022/04/20 04:04:29;;;;;;;5.00;4.60;;;;;;;-1.81;100.00;96880.41;4910259;28;21241;-60
2022/04/20 04:06:57;;;;;;;5.43;5.03;;;;;;;-1.98;100.00;96869.47;4948287;28;20675;-61
2022/04/20 04:09:25;;;;;;;5.03;4.73;;;;;;;-1.98;100.00;96873.84;4930129;28;20214;-57
2022/04/20 04:11:55;;;;;;;5.63;5.10;;;;;;;-2.10;100.00;96878.16;4948163;28;20222;-58
2022/04/20 04:14:23;;;;;;;5.77;5.40;;;;;;;-2.18;100.00;96878.72;4943114;28;20582;-58
2022/04/20 04:16:51;;;;;;;5.90;5.40;;;;;;;-2.22;100.00;96883.31;4945638;28;20628;-59
2022/04/20 04:19:19;;;;;;;5.47;4.80;;;;;;;-2.20;100.00;96883.19;4946150;28;20655;-58
2022/04/20 04:21:48;;;;;;;5.00;4.70;;;;;;;-2.26;100.00;96876.69;4911749;28;21739;-58
2022/04/20 04:27:00;;;;;;;5.73;5.33;;;;;;;-2.18;100.00;96870.94;4938586;28;20289;-60
2022/04/20 04:29:28;;;;;;;6.60;5.87;;;;;;;-1.97;100.00;96878.91;4946162;28;20575;-57
2022/04/20 04:31:56;;;;;;;6.80;6.20;;;;;;;-1.93;100.00;96888.13;4949299;28;20255;-57
2022/04/20 04:34:25;;;;;;;5.57;5.27;;;;;;;-1.89;100.00;96896.53;4947161;28;20338;-59
2022/04/20 04:36:58;;;;;;;6.67;6.03;;;;;;;-1.78;100.00;96901.75;4911988;28;20219;-59
2022/04/20 04:39:28;;;;;;;7.40;6.80;;;;;;;-1.79;100.00;96902.69;4946965;28;20478;-61
2022/04/20 04:42:00;;;;;;;6.70;6.17;;;;;;;-1.78;100.00;96900.94;4934504;28;20237;-57
2022/04/20 04:44:32;;;;;;;7.10;6.50;;;;;;;-1.73;100.00;96898.84;4951279;28;20293;-57
2022/04/20 04:49:46;;;;;;;6.80;6.30;;;;;;;-1.68;100.00;96906.28;4954594;28;20256;-58
2022/04/20 04:52:14;;;;;;;5.97;5.57;;;;;;;-1.57;100.00;96910.66;4909616;28;20209;-59
2022/04/20 04:54:43;;;;;;;6.40;5.90;;;;;;;-1.52;100.00;96905.94;4947813;28;20258;-58
2022/04/20 04:57:12;;;;;;;6.63;6.13;;;;;;;-1.43;100.00;96902.69;4934665;28;20265;-61
2022/04/20 04:59:42;;;;;;;6.67;6.17;;;;;;;-1.32;100.00;96904.47;4948471;28;20217;-59
2022/04/20 05:02:11;;;;;;;5.83;5.43;;;;;;;-1.19;100.00;96912.16;4948505;28;20337;-60
2022/04/20 05:04:40;;;;;;;7.03;5.83;;;;;;;-1.10;100.00;96916.66;4946604;28;20289;-58
2022/04/20 05:07:09;;;;;;;6.80;6.20;;;;;;;-1.02;100.00;96918.66;4910237;28;20293;-58
2022/04/20 05:09:37;;;;;;;6.57;5.90;;;;;;;-0.88;100.00;96922.81;4949698;28;20365;-59
2022/04/20 05:12:06;;;;;;;6.87;6.10;;;;;;;-0.78;100.00;96910.72;4935621;28;20211;-59
2022/04/20 05:14:37;;;;;;;5.73;5.33;;;;;;;-0.63;100.00;96913.09;4948444;28;20301;-58
2022/04/20 05:17:06;;;;;;;7.43;6.73;;;;;;;-0.51;100.00;96919.13;4948539;28;20253;-57
2022/04/20 05:19:35;;;;;;;5.70;5.30;;;;;;;-0.38;100.00;96916.34;4949349;28;20465;-57
2022/04/20 05:22:04;;;;;;;6.10;5.60;;;;;;;-0.28;100.00;96913.84;4938038;28;20325;-59
2022/04/20 05:24:35;;;;;;;5.93;5.53;;;;;;;-0.18;100.00;96918.22;4931508;28;20481;-54
2022/04/20 05:27:04;;;;;;;6.37;5.67;;;;;;;0.06;100.00;96903.31;4935003;28;20214;-58
2022/04/20 05:29:32;;;;;;;5.53;5.13;;;;;;;0.14;100.00;96908.72;4945651;28;20367;-53
2022/04/20 05:32:02;;;;;;;6.47;5.87;;;;;;;0.31;100.00;96906.53;4947972;28;20808;-59
2022/04/20 05:34:33;;;;;;;5.50;5.10;;;;;;;0.41;100.00;96905.66;4946838;28;20214;-57
2022/04/20 05:42:32;;;;;;;5.80;5.40;;;;;;;0.91;100.00;96905.91;4935900;28;20577;-60
2022/04/20 05:45:02;;;;;;;5.53;5.13;;;;;;;1.12;100.00;96904.09;4945197;28;20207;-58
2022/04/20 05:47:31;;;;;;;5.57;5.17;;;;;;;1.28;100.00;96898.41;4944152;28;20203;-57
2022/04/20 05:50:01;;;;;;;5.67;5.27;;;;;;;1.53;100.00;96903.25;4949132;28;20273;-57
2022/04/20 05:52:29;;;;;;;6.53;5.87;;;;;;;1.82;100.00;96908.53;4946754;28;20392;-58
2022/04/20 05:54:57;;;;;;;5.63;5.13;;;;;;;2.05;100.00;96908.28;4914961;28;20312;-59
2022/04/20 05:57:26;;;;;;;5.43;4.93;;;;;;;2.14;100.00;96902.22;4945468;28;20429;-58
2022/04/20 05:59:54;;;;;;;5.53;5.03;;;;;;;2.23;100.00;96905.81;4934487;28;20617;-61
2022/04/20 06:02:22;;;;;;;5.27;4.87;;;;;;;2.31;100.00;96905.13;4950862;28;20454;-57
2022/04/20 06:04:50;;;;;;;5.70;5.20;;;;;;;2.56;100.00;96901.09;4950397;28;20270;-57
2022/04/20 06:07:20;;;;;;;4.50;4.20;;;;;;;2.89;100.00;96898.13;4946204;28;20199;-54
2022/04/20 06:09:48;;;;;;;7.73;4.60;;;;;;;3.10;100.00;96908.38;4911173;28;20244;-57
2022/04/20 06:12:20;;;;;;;4.33;4.13;;;;;;;3.32;100.00;96906.38;4943895;28;20540;-59
2022/04/20 06:14:48;;;;;;;5.10;4.70;;;;;;;3.47;100.00;96901.50;4932783;28;20218;-59
2022/04/20 06:17:16;;;;;;;4.53;4.23;;;;;;;3.48;100.00;96900.53;4944545;28;20743;-56
2022/04/20 06:19:44;;;;;;;4.67;4.37;;;;;;;3.53;100.00;96900.06;4951080;28;20297;-55
2022/04/20 06:22:13;;;;;;;4.97;4.67;;;;;;;3.83;100.00;96895.47;4945810;28;20234;-55
2022/04/20 06:24:42;;;;;;;5.00;4.70;;;;;;;4.01;100.00;96898.09;4910738;28;20225;-59
2022/04/20 06:27:11;;;;;;;4.60;4.20;;;;;;;4.18;100.00;96889.44;4945420;28;20769;-60
2022/04/20 06:29:39;;;;;;;4.70;4.40;;;;;;;4.43;100.00;96892.22;4942592;28;20234;-58
2022/04/20 06:32:09;;;;;;;4.80;4.43;;;;;;;4.50;100.00;96887.22;4932029;28;20305;-61
2022/04/20 06:34:37;;;;;;;4.70;4.30;;;;;;;4.77;100.00;96880.19;4943988;28;21125;-59
2022/04/20 06:37:06;;;;;;;4.73;4.43;;;;;;;5.01;100.00;96889.16;4947052;28;20581;-59
2022/04/20 06:39:34;;;;;;;4.57;4.27;;;;;;;5.44;100.00;96882.13;4943910;28;20210;-59
2022/04/20 06:42:04;;;;;;;5.03;4.73;;;;;;;6.83;100.00;96876.34;4909975;28;20222;-59
2022/04/20 06:44:32;;;;;;;3.97;3.67;;;;;;;8.11;100.00;96882.38;4946506;28;20515;-60
2022/04/20 06:47:00;;;;;;;3.80;3.50;;;;;;;9.19;92.91;96868.22;4936571;28;20301;-57
2022/04/20 06:49:28;;;;;;;4.23;3.93;;;;;;;10.33;75.07;96866.03;4942852;28;20244;-59
2022/04/20 07:00:17;;;;;;;3.87;3.63;;;;;;;7.68;94.58;96877.53;4941616;28;20880;-58
2022/04/20 07:02:45;;;;;;;4.07;3.77;;;;;;;7.24;100.00;96886.78;4935338;28;20350;-60
2022/04/20 07:05:14;;;;;;;4.33;4.03;;;;;;;7.21;100.00;96876.59;4939385;28;20289;-58
2022/04/20 07:07:42;;;;;;;4.10;3.80;;;;;;;7.11;100.00;96873.34;4942021;28;20766;-60
2022/04/20 07:10:25;;;;;;;9.07;8.37;;;;;;;6.95;100.00;96875.00;4945802;28;20234;-57
2022/04/20 07:12:55;;;;;;;11.23;10.13;;;;;;;6.96;100.00;96867.94;4910773;28;20414;-58
2022/04/20 07:15:25;;;;;;;4.33;4.07;;;;;;;7.15;100.00;96866.72;4941376;28;20312;-57
2022/04/20 07:17:53;;;;;;;6.07;5.70;;;;;;;7.00;100.00;96871.88;4935876;28;20480;-71
2022/04/20 07:20:21;;;;;;;33.77;31.83;;;;;;;7.26;100.00;96864.72;4944674;28;20321;-62
2022/04/20 07:22:49;;;;;;;7.67;6.93;;;;;;;7.19;100.00;96860.13;4944068;28;20230;-58
2022/04/20 07:25:18;;;;;;;4.27;4.00;;;;;;;7.45;100.00;96864.31;4943724;28;20691;-60
2022/04/20 07:27:47;;;;;;;5.33;4.53;;;;;;;7.56;95.74;96851.72;4903998;28;20416;-58
2022/04/20 07:30:16;;;;;;;4.50;4.20;;;;;;;7.68;92.08;96855.59;4941856;28;20343;-59
2022/04/20 07:32:46;;;;;;;4.23;3.93;;;;;;;7.77;92.61;96857.22;4942077;28;20493;-60
2022/04/20 07:35:14;;;;;;;5.07;4.63;;;;;;;7.80;88.82;96856.88;4936313;28;20694;-57
2022/04/20 07:37:42;;;;;;;4.73;4.20;;;;;;;7.91;89.73;96854.81;4945063;28;20641;-59
2022/04/20 07:40:12;;;;;;;4.80;4.50;;;;;;;7.82;84.83;96851.41;4938845;28;20726;-65
2022/04/20 07:42:40;;;;;;;4.10;3.80;;;;;;;7.88;86.29;96852.53;4909740;28;22126;-57
2022/04/20 07:45:10;;;;;;;4.13;3.90;;;;;;;7.95;86.89;96861.38;4943542;28;20828;-57
2022/04/20 07:47:39;;;;;;;4.20;3.90;;;;;;;7.96;86.05;96855.13;4936563;28;20289;-62
2022/04/20 07:50:21;;;;;;;4.13;3.83;;;;;;;7.57;82.81;96853.38;4944146;28;20265;-64
2022/04/20 07:52:51;;;;;;;4.17;3.80;;;;;;;7.50;84.10;96859.34;4937671;28;20750;-63
2022/04/20 07:55:21;;;;;;;4.30;3.90;;;;;;;7.61;82.49;96865.22;4945169;28;20690;-60
2022/04/20 07:57:50;;;;;;;4.03;3.73;;;;;;;7.80;78.76;96864.78;4900569;28;21726;-65
2022/04/20 08:00:20;;;;;;;4.30;4.00;;;;;;;8.14;79.50;96860.09;4949723;28;20309;-64
2022/04/20 08:02:50;;;;;;;4.13;3.83;;;;;;;8.30;73.67;96858.31;4942336;28;20612;-64
2022/04/20 08:05:20;;;;;;;3.97;3.77;;;;;;;8.20;71.59;96853.31;4945438;28;20210;-60
2022/04/20 08:07:48;;;;;;;4.10;3.80;;;;;;;8.56;68.82;96860.63;4949862;28;20747;-64
2022/04/20 08:10:16;;;;;;;4.17;3.87;;;;;;;8.39;70.33;96852.00;4952119;28;20254;-62
2022/04/20 08:12:45;;;;;;;4.37;4.07;;;;;;;8.59;67.54;96854.16;4938797;28;20563;-59
2022/04/20 08:15:13;;;;;;;4.73;4.43;;;;;;;8.65;61.60;96848.16;4913601;28;20742;-59
2022/04/20 08:17:42;;;;;;;4.47;4.27;;;;;;;8.62;65.28;96852.00;4948637;28;20230;-60
2022/04/20 08:20:11;;;;;;;5.13;4.73;;;;;;;8.61;65.23;96855.63;4947767;28;20311;-62
2022/04/20 08:22:41;;;;;;;4.70;4.30;;;;;;;8.77;64.03;96841.44;4942554;28;20540;-64
2022/04/20 08:25:10;;;;;;;5.07;4.67;;;;;;;9.05;65.70;96834.69;4952096;28;20332;-63
2022/04/20 08:27:39;;;;;;;4.37;4.07;;;;;;;9.11;63.67;96841.91;4936191;28;21250;-59
2022/04/20 08:30:09;;;;;;;4.17;3.87;;;;;;;9.39;58.46;96836.75;4909831;28;20733;-66
2022/04/20 08:32:38;;;;;;;4.47;4.07;;;;;;;9.48;55.41;96845.41;4945302;28;20223;-62
2022/04/20 08:35:07;;;;;;;3.83;3.57;;;;;;;9.15;53.09;96835.22;4950389;28;20710;-57
2022/04/20 08:37:43;;;;;;;4.87;4.47;;;;;;;9.45;52.02;96834.38;4947673;28;20761;-63
2022/04/20 08:40:13;;;;;;;3.77;3.57;;;;;;;9.60;50.11;96834.34;4945532;28;20276;-62
2022/04/20 08:42:41;;;;;;;4.50;3.97;;;;;;;10.01;50.34;96840.88;4938167;28;20875;-62
2022/04/20 08:45:11;;;;;;;4.73;4.20;;;;;;;10.24;49.93;96836.22;4914664;28;20241;-62
2022/04/20 08:47:40;;;;;;;7.40;4.10;;;;;;;10.20;48.33;96827.00;4944870;28;20294;-60
2022/04/20 08:50:11;;;;;;;4.37;4.10;;;;;;;10.23;46.50;96826.66;4950194;28;20262;-57
2022/04/20 08:52:41;;;;;;;4.57;4.27;;;;;;;10.18;48.56;96821.06;4941674;28;20450;-63
2022/04/20 08:55:13;;;;;;;4.60;4.23;;;;;;;10.16;48.14;96825.75;4951958;28;20847;-61
2022/04/20 08:57:43;;;;;;;4.13;3.83;;;;;;;9.68;48.11;96824.47;4936971;28;21075;-60
2022/04/20 09:00:13;;;;;;;5.07;4.60;;;;;;;9.59;46.61;96816.84;4916479;28;20229;-60
2022/04/20 09:02:41;;;;;;;4.37;4.07;;;;;;;9.68;46.47;96816.53;4940111;28;20430;-63
2022/04/20 09:05:10;;;;;;;4.23;3.90;;;;;;;9.78;50.02;96813.59;4947670;28;20610;-57
2022/04/20 09:07:44;;;;;;;4.80;4.50;;;;;;;9.77;49.86;96805.84;4943955;28;20212;-61
2022/04/20 09:10:16;;;;;;;5.60;5.03;;;;;;;10.00;48.51;96803.00;4947397;28;20793;-59
2022/04/20 09:12:46;;;;;;;4.73;4.43;;;;;;;10.18;48.38;96793.81;4941672;28;20217;-60
2022/04/20 09:15:29;;;;;;;5.47;4.87;;;;;;;10.20;49.87;96789.13;4902965;28;20309;-65
2022/04/20 09:17:57;;;;;;;4.73;4.43;;;;;;;10.26;50.24;96788.38;4947292;28;20305;-60
2022/04/20 09:20:26;;;;;;;4.57;4.27;;;;;;;10.45;47.93;96794.06;4949548;28;20317;-62
2022/04/20 09:23:01;;;;;;;3.97;3.70;;;;;;;10.17;45.82;96790.31;4944647;28;20238;-62
2022/04/20 09:25:36;;;;;;;4.60;4.20;;;;;;;10.20;44.43;96791.78;4950556;28;20787;-62
2022/04/20 09:28:04;;;;;;;5.53;5.03;;;;;;;10.22;47.06;96789.75;4950501;28;20317;-60
2022/04/20 09:30:34;;;;;;;4.07;3.87;;;;;;;10.28;45.04;96787.16;4911208;28;20337;-56
2022/04/20 09:33:06;;;;;;;4.43;4.13;;;;;;;10.55;44.33;96786.56;4945618;28;20202;-58
2022/04/20 09:35:41;;;;;;;3.53;3.33;;;;;;;10.66;45.27;96791.31;4944533;28;20218;-57
2022/04/20 09:38:09;;;;;;;3.97;3.77;;;;;;;10.85;42.37;96791.66;4946860;28;20690;-58
2022/04/20 09:40:40;;;;;;;4.57;4.17;;;;;;;10.90;43.80;96775.97;4943878;28;20234;-58
2022/04/20 09:43:09;;;;;;;3.77;3.47;;;;;;;10.89;41.69;96784.94;4947789;28;20206;-60
2022/04/20 09:45:37;;;;;;;4.13;3.90;;;;;;;10.84;41.49;96780.22;4934556;28;20269;-59
2022/04/20 09:51:10;;;;;;;4.37;4.07;;;;;;;10.51;39.45;96775.53;4947000;28;20222;-58
2022/04/20 09:53:38;;;;;;;3.90;3.70;;;;;;;10.69;40.33;96769.75;4942304;28;20303;-56
2022/04/20 09:56:18;;;;;;;3.40;3.07;;;;;;;10.70;39.25;96768.72;4949074;28;20678;-56
2022/04/20 09:58:47;;;;;;;3.70;3.40;;;;;;;10.66;38.32;96764.84;4943773;28;20682;-56
2022/04/20 10:01:27;;;;;;;4.00;3.80;;;;;;;10.73;38.96;96772.81;4939788;28;20237;-57
2022/04/20 10:03:56;;;;;;;4.00;3.70;;;;;;;10.67;38.92;96763.81;4928369;28;20218;-60
2022/04/20 10:06:24;;;;;;;3.50;3.30;;;;;;;10.63;38.01;96762.56;4942900;28;20297;-59
2022/04/20 10:08:52;;;;;;;3.37;3.23;;;;;;;10.62;38.46;96757.50;4946209;28;20541;-57
2022/04/20 10:11:23;;;;;;;4.73;4.10;;;;;;;10.80;39.07;96755.13;4945828;28;20492;-57
2022/04/20 10:16:39;;;;;;;4.00;3.70;;;;;;;11.34;38.94;96757.19;4905759;28;20301;-58
2022/04/20 10:19:08;;;;;;;3.93;3.53;;;;;;;11.15;37.91;96751.59;4944250;28;20214;-59
2022/04/20 10:21:41;;;;;;;4.20;3.90;;;;;;;11.19;38.74;96750.22;4940312;28;20735;-56
2022/04/20 10:24:15;;;;;;;4.47;4.17;;;;;;;11.07;37.75;96754.44;4947622;28;20293;-59
2022/04/20 10:26:45;;;;;;;4.20;3.87;;;;;;;11.04;37.64;96742.41;4942060;28;20624;-60
2022/04/20 10:29:20;;;;;;;4.30;4.00;;;;;;;10.97;38.37;96747.66;4947443;28;20746;-56
2022/04/20 10:31:52;;;;;;;3.80;3.60;;;;;;;11.19;40.01;96744.09;4932037;28;20515;-55
2022/04/20 10:34:21;;;;;;;4.50;4.20;;;;;;;11.54;38.43;96736.81;4908843;28;20671;-57
2022/04/20 10:36:57;;;;;;;5.37;4.20;;;;;;;11.71;39.67;96718.69;4939480;28;20265;-56
2022/04/20 10:39:27;;;;;;;4.47;4.17;;;;;;;11.82;38.32;96719.94;4940664;28;20333;-59
2022/04/20 10:42:22;;;;;;;3.50;3.30;;;;;;;12.12;39.30;96718.72;4943561;28;20469;-56
2022/04/20 10:45:04;;;;;;;3.90;3.50;;;;;;;12.09;39.03;96712.00;4939555;28;20297;-57
2022/04/20 10:47:33;;;;;;;3.20;3.10;;;;;;;12.07;38.64;96713.22;4930394;28;20219;-57
2022/04/20 10:50:21;;;;;;;3.70;3.50;;;;;;;11.88;37.18;96707.69;4912288;28;20230;-58
2022/04/20 10:52:58;;;;;;;6.17;3.40;;;;;;;11.93;38.11;96707.06;4942444;28;21300;-59
2022/04/20 10:55:53;;;;;;;5.00;3.83;;;;;;;12.07;38.45;96691.97;4949146;28;20213;-58
2022/04/20 10:58:23;;;;;;;4.07;3.87;;;;;;;12.04;36.56;96703.00;4945324;28;20741;-56
2022/04/20 11:01:10;;;;;;;4.70;4.00;;;;;;;11.95;38.14;96697.06;4939439;28;21984;-58
2022/04/20 11:04:06;;;;;;;5.07;3.80;;;;;;;11.95;37.24;96689.91;4906138;28;20203;-56
2022/04/20 11:07:17;;;;;;;3.83;3.63;;;;;;;11.69;36.46;96683.56;4942084;28;20427;-59
2022/04/20 11:09:50;;;;;;;4.20;3.90;;;;;;;11.94;38.86;96682.16;4943402;28;20350;-59
2022/04/20 11:19:19;;;;;;;4.37;3.97;;;;;;;12.09;36.00;96674.00;4850791;29;21065;-59
2022/04/20 11:21:53;;;;;;;3.97;3.67;;;;;;;11.94;35.56;96680.31;4890111;29;20413;-59
2022/04/20 11:24:28;;;;;;;3.20;3.00;;;;;;;12.09;37.88;96674.81;4898886;29;20207;-56
2022/04/20 11:26:58;;;;;;;3.97;3.70;;;;;;;12.19;38.33;96676.25;4898622;29;20419;-54
2022/04/20 11:29:28;;;;;;;3.87;3.57;;;;;;;12.15;35.44;96671.34;4898654;29;20307;-57
2022/04/20 11:31:58;;;;;;;4.10;3.80;;;;;;;12.00;34.44;96670.72;4887024;29;20942;-56
2022/04/20 11:34:28;;;;;;;3.70;3.40;;;;;;;12.01;34.52;96656.47;4862832;29;20299;-58
2022/04/20 11:37:00;;;;;;;3.90;3.60;;;;;;;12.19;37.26;96655.00;4896882;29;20536;-57
2022/04/20 11:39:29;;;;;;;4.27;3.97;;;;;;;12.39;37.17;96658.44;4896736;29;20689;-57
2022/04/20 11:41:58;;;;;;;4.33;4.03;;;;;;;12.41;37.09;96659.03;4897787;29;20434;-56
2022/04/20 11:44:28;;;;;;;3.80;3.60;;;;;;;12.51;38.31;96653.28;4896676;29;20216;-57
2022/04/20 11:47:01;;;;;;;3.63;3.43;;;;;;;12.42;35.28;96652.69;4898481;29;21090;-59
2022/04/20 11:49:35;;;;;;;3.83;3.53;;;;;;;12.54;37.83;96655.53;4867261;29;20220;-57
2022/04/20 11:52:07;;;;;;;3.70;3.50;;;;;;;12.82;36.67;96648.25;4895273;29;20319;-53
2022/04/20 11:54:36;;;;;;;3.87;3.53;;;;;;;12.80;37.05;96647.66;4926282;28;20239;-57
2022/04/20 11:57:05;;;;;;;3.77;3.50;;;;;;;12.91;37.72;96644.34;4949671;28;20290;-55
2022/04/20 11:59:33;;;;;;;4.03;3.70;;;;;;;12.95;36.30;96637.56;4942855;28;20292;-58
2022/04/20 12:02:03;;;;;;;4.43;3.77;;;;;;;13.07;38.93;96636.88;4946692;28;20657;-57
2022/04/20 12:04:32;;;;;;;3.77;3.47;;;;;;;13.11;36.39;96622.94;4911703;28;20310;-57
2022/04/20 12:07:04;;;;;;;3.80;3.60;;;;;;;13.04;36.99;96635.47;4943593;28;20603;-56
2022/04/20 12:09:35;;;;;;;305.60;34.13;;;;;;;13.30;38.79;96631.84;4943983;28;20305;-57
2022/04/20 12:12:05;;;;;;;4.23;3.93;;;;;;;13.50;36.17;96630.91;4945045;28;20234;-58
2022/04/20 12:14:34;;;;;;;3.53;3.33;;;;;;;13.51;34.91;96629.88;4944063;28;20214;-57
2022/04/20 12:17:06;;;;;;;4.87;3.63;;;;;;;13.22;35.72;96620.63;4946927;28;20294;-55